createdAt,value
2022-11-09T00:02:59.549Z,99413.80
2022-11-09T00:06:02.351Z,99407.20
2022-11-09T00:09:08.160Z,99412.55
2022-11-09T00:12:10.120Z,99402.77
2022-11-09T00:15:11.856Z,99397.17
2022-11-09T00:18:13.303Z,99395.75
2022-11-09T00:21:23.383Z,99398.02
2022-11-09T00:24:25.542Z,99391.77
2022-11-09T00:27:30.704Z,99386.33
2022-11-09T00:30:32.254Z,99394.55
2022-11-09T00:33:34.603Z,99395.33
2022-11-09T00:36:36.192Z,99394.39
2022-11-09T00:39:40.327Z,99397.25
2022-11-09T00:42:42.006Z,99389.76
2022-11-09T00:45:44.261Z,99389.08
2022-11-09T00:49:13.274Z,99398.31
2022-11-09T00:52:14.797Z,99394.59
2022-11-09T00:55:52.650Z,99399.54
2022-11-09T00:58:55.950Z,99396.54
2022-11-09T01:01:57.488Z,99397.14
2022-11-09T01:05:01.553Z,99395.63
2022-11-09T01:08:03.033Z,99397.11
2022-11-09T01:11:06.902Z,99397.64
2022-11-09T01:14:09.135Z,99399.45
2022-11-09T01:17:10.593Z,99396.69
2022-11-09T01:20:12.388Z,99398.45
2022-11-09T01:23:18.048Z,99402.97
2022-11-09T01:26:25.015Z,99398.56
2022-11-09T01:29:26.575Z,99404.73
2022-11-09T01:32:31.607Z,99408.70
2022-11-09T01:35:35.296Z,99407.18
2022-11-09T01:38:38.244Z,99403.73
2022-11-09T01:41:39.815Z,99411.47
2022-11-09T01:44:42.337Z,99403.39
2022-11-09T01:47:47.090Z,99403.07
2022-11-09T01:50:54.419Z,99398.23
2022-11-09T01:54:05.977Z,99398.69
2022-11-09T01:57:15.302Z,99395.19
2022-11-09T02:00:18.186Z,99391.39
2022-11-09T02:03:27.131Z,99388.31
2022-11-09T02:06:30.327Z,99388.02
2022-11-09T02:09:55.307Z,99385.85
2022-11-09T02:12:58.942Z,99395.68
2022-11-09T02:16:00.707Z,99391.71
2022-11-09T02:19:02.215Z,99390.44
2022-11-09T02:22:04.915Z,99383.59
2022-11-09T02:25:07.833Z,99384.45
2022-11-09T02:28:09.390Z,99379.66
2022-11-09T02:31:14.938Z,99384.05
2022-11-09T02:34:20.776Z,99389.67
2022-11-09T02:37:39.144Z,99383.70
2022-11-09T02:40:45.148Z,99378.51
2022-11-09T02:43:47.789Z,99383.20
2022-11-09T02:46:49.256Z,99383.29
2022-11-09T02:49:50.867Z,99385.53
2022-11-09T02:52:52.275Z,99381.52
2022-11-09T02:55:53.683Z,99382.19
2022-11-09T02:58:55.189Z,99385.45
2022-11-09T03:01:56.597Z,99380.16
2022-11-09T03:04:58.095Z,99388.64
2022-11-09T03:08:01.797Z,99385.06
2022-11-09T03:11:05.547Z,99386.34
2022-11-09T03:14:09.311Z,99380.45
2022-11-09T03:17:10.844Z,99365.84
2022-11-09T03:20:16.731Z,99369.54
2022-11-09T03:23:18.482Z,99367.63
2022-11-09T03:26:21.165Z,99368.96
2022-11-09T03:29:23.655Z,99365.39
2022-11-09T03:32:25.881Z,99361.60
2022-11-09T03:35:28.275Z,99366.29
2022-11-09T03:38:29.706Z,99368.16
2022-11-09T03:41:31.175Z,99374.52
2022-11-09T03:44:32.636Z,99371.96
2022-11-09T03:47:34.003Z,99381.83
2022-11-09T03:50:39.898Z,99383.07
2022-11-09T03:53:41.333Z,99379.01
2022-11-09T03:56:42.847Z,99374.95
2022-11-09T03:59:44.236Z,99366.64
2022-11-09T04:02:45.952Z,99364.57
2022-11-09T04:05:47.463Z,99362.27
2022-11-09T04:08:51.469Z,99352.60
2022-11-09T04:11:53.167Z,99357.41
2022-11-09T04:15:09.425Z,99361.19
2022-11-09T04:18:14.301Z,99363.16
2022-11-09T04:21:21.441Z,99358.51
2022-11-09T04:24:25.174Z,99359.59
2022-11-09T04:27:27.050Z,99355.02
2022-11-09T04:31:21.284Z,99355.11
2022-11-09T04:34:25.501Z,99352.64
2022-11-09T04:37:26.975Z,99354.77
2022-11-09T04:40:31.490Z,99348.84
2022-11-09T04:43:32.951Z,99353.99
2022-11-09T04:46:34.398Z,99352.62
2022-11-09T04:49:35.863Z,99349.79
2022-11-09T04:52:37.551Z,99351.30
2022-11-09T04:55:40.692Z,99349.00
2022-11-09T04:58:42.798Z,99343.41
2022-11-09T05:01:44.333Z,99343.75
2022-11-09T05:04:45.955Z,99343.23
2022-11-09T05:07:47.403Z,99341.27
2022-11-09T05:10:48.981Z,99336.13
2022-11-09T05:13:53.332Z,99328.98
2022-11-09T05:16:54.733Z,99316.82
2022-11-09T05:19:56.202Z,99314.48
2022-11-09T05:23:17.852Z,99317.69
2022-11-09T05:26:19.714Z,99318.59
2022-11-09T05:29:21.108Z,99321.73
2022-11-09T05:32:22.558Z,99325.64
2022-11-09T05:35:24.180Z,99330.27
2022-11-09T05:38:25.636Z,99339.39
2022-11-09T05:41:27.709Z,99341.07
2022-11-09T05:44:30.134Z,99349.46
2022-11-09T05:47:36.870Z,99360.23
2022-11-09T05:50:39.186Z,99361.52
2022-11-09T05:53:45.917Z,99360.63
2022-11-09T05:56:48.653Z,99363.00
2022-11-09T05:59:50.118Z,99368.52
2022-11-09T06:02:51.923Z,99372.56
2022-11-09T06:05:53.454Z,99381.72
2022-11-09T06:08:57.523Z,99386.20
2022-11-09T06:11:59.455Z,99385.62
2022-11-09T06:15:04.847Z,99382.66
2022-11-09T06:18:06.386Z,99379.55
2022-11-09T06:21:07.886Z,99383.48
2022-11-09T06:24:09.970Z,99382.66
2022-11-09T06:27:11.608Z,99391.71
2022-11-09T06:30:13.492Z,99395.15
2022-11-09T06:33:15.157Z,99392.42
2022-11-09T06:36:16.862Z,99393.71
2022-11-09T06:39:19.727Z,99389.43
2022-11-09T06:42:21.499Z,99382.88
2022-11-09T06:45:23.430Z,99375.87
2022-11-09T06:48:25.045Z,99369.50
2022-11-09T06:51:28.981Z,99374.71
2022-11-09T06:54:30.981Z,99384.96
2022-11-09T06:57:32.588Z,99383.70
2022-11-09T07:00:34.217Z,99392.48
2022-11-09T07:03:36.600Z,99391.23
2022-11-09T07:06:41.989Z,99394.97
2022-11-09T07:09:43.647Z,99395.30
2022-11-09T07:12:46.644Z,99381.77
2022-11-09T07:15:52.941Z,99386.10
2022-11-09T07:18:54.596Z,99390.25
2022-11-09T07:21:57.105Z,99387.73
2022-11-09T07:24:58.749Z,99393.91
2022-11-09T07:28:06.978Z,99387.98
2022-11-09T07:31:09.416Z,99385.16
2022-11-09T07:34:10.946Z,99379.62
2022-11-09T07:37:15.537Z,99379.33
2022-11-09T07:40:17.118Z,99392.55
2022-11-09T07:43:19.297Z,99402.38
2022-11-09T07:47:04.091Z,99401.48
2022-11-09T07:50:06.352Z,99409.58
2022-11-09T07:53:10.315Z,99407.39
2022-11-09T07:56:12.046Z,99401.16
2022-11-09T07:59:13.728Z,99402.38
2022-11-09T08:02:15.229Z,99402.61
2022-11-09T08:05:17.134Z,99403.61
2022-11-09T08:08:18.800Z,99397.83
2022-11-09T08:11:21.083Z,99402.06
2022-11-09T08:14:22.580Z,99401.36
2022-11-09T08:17:24.073Z,99403.44
2022-11-09T08:20:25.867Z,99404.13
2022-11-09T08:23:27.347Z,99404.36
2022-11-09T08:26:29.164Z,99407.45
2022-11-09T08:29:30.712Z,99409.73
2022-11-09T08:32:59.147Z,99418.65
2022-11-09T08:36:01.353Z,99412.61
2022-11-09T08:39:06.032Z,99408.48
2022-11-09T08:42:08.008Z,99412.98
2022-11-09T08:45:11.042Z,99412.53
2022-11-09T08:48:13.035Z,99411.82
2022-11-09T08:51:14.800Z,99409.10
2022-11-09T08:54:17.567Z,99406.40
2022-11-09T08:57:19.685Z,99408.83
2022-11-09T09:00:21.582Z,99411.50
2022-11-09T09:03:23.253Z,99412.95
2022-11-09T09:06:30.640Z,99409.77
2022-11-09T09:09:34.264Z,99411.35
2022-11-09T09:12:36.340Z,99412.83
2022-11-09T09:15:38.245Z,99426.98
2022-11-09T09:18:40.031Z,99436.39
2022-11-09T09:21:41.837Z,99446.88
2022-11-09T09:24:53.361Z,99424.75
2022-11-09T09:27:55.288Z,99455.66
2022-11-09T09:30:59.281Z,99451.01
2022-11-09T09:34:01.291Z,99478.16
2022-11-09T09:37:03.087Z,99483.25
2022-11-09T09:40:05.661Z,99480.75
2022-11-09T09:43:27.064Z,99483.21
2022-11-09T09:46:58.328Z,99477.83
2022-11-09T09:50:05.644Z,99481.85
2022-11-09T09:53:24.627Z,99475.80
2022-11-09T09:56:33.663Z,99472.71
2022-11-09T09:59:42.322Z,99482.17
2022-11-09T10:02:44.072Z,99487.67
2022-11-09T10:06:01.483Z,99484.42
2022-11-09T10:10:05.915Z,99485.73
2022-11-09T10:13:45.882Z,99482.23
2022-11-09T10:16:59.696Z,99490.23
2022-11-09T10:20:20.383Z,99494.08
2022-11-09T10:23:47.060Z,99496.34
2022-11-09T10:26:51.260Z,99496.77
2022-11-09T10:29:54.888Z,99498.44
2022-11-09T10:33:11.430Z,99499.73
2022-11-09T10:36:24.422Z,99495.20
2022-11-09T10:39:31.802Z,99487.58
2022-11-09T10:42:34.009Z,99483.44
2022-11-09T10:45:43.871Z,99491.23
2022-11-09T10:48:46.188Z,99479.98
2022-11-09T10:51:49.101Z,99497.01
2022-11-09T10:55:15.865Z,99489.34
2022-11-09T10:58:26.922Z,99477.67
2022-11-09T11:02:20.340Z,99486.25
2022-11-09T11:05:46.372Z,99478.62
2022-11-09T11:09:09.490Z,99476.61
2022-11-09T11:12:22.873Z,99475.25
2022-11-09T11:15:42.187Z,99474.83
2022-11-09T11:18:55.005Z,99487.20
2022-11-09T11:26:56.853Z,99481.44
2022-11-09T11:30:15.930Z,99477.81
2022-11-09T11:33:28.740Z,99472.96
2022-11-09T11:36:38.745Z,99469.88
2022-11-09T11:39:50.213Z,99465.52
2022-11-09T11:43:20.589Z,99464.84
2022-11-09T11:46:55.446Z,99469.14
2022-11-09T11:50:19.282Z,99473.92
2022-11-09T11:53:59.921Z,99461.06
2022-11-09T11:57:48.867Z,99448.30
2022-11-09T12:00:52.447Z,99458.78
2022-11-09T12:09:08.479Z,99454.36
2022-11-09T12:16:02.202Z,99457.76
2022-11-09T12:19:36.010Z,99454.27
2022-11-09T12:23:11.235Z,99455.86
2022-11-09T12:26:25.022Z,99456.95
2022-11-09T12:29:42.093Z,99456.09
2022-11-09T12:32:46.604Z,99450.43
2022-11-09T12:35:58.986Z,99454.30
2022-11-09T12:39:07.347Z,99446.67
2022-11-09T12:42:26.717Z,99441.02
2022-11-09T12:45:37.939Z,99449.63
2022-11-09T12:48:44.040Z,99444.41
2022-11-09T12:51:45.910Z,99440.05
2022-11-09T12:54:50.199Z,99434.20
2022-11-09T12:57:55.839Z,99441.33
2022-11-09T13:01:25.121Z,99441.30
2022-11-09T13:04:26.849Z,99441.33
2022-11-09T13:07:37.874Z,99442.36
2022-11-09T13:10:49.728Z,99436.84
2022-11-09T13:13:51.667Z,99433.89
2022-11-09T13:16:57.822Z,99426.32
2022-11-09T13:19:59.557Z,99424.92
2022-11-09T13:23:04.752Z,99428.25
2022-11-09T13:26:23.304Z,99426.30
2022-11-09T13:29:40.637Z,99428.45
2022-11-09T13:33:07.633Z,99433.08
2022-11-09T13:36:09.108Z,99439.95
2022-11-09T13:39:28.005Z,99442.63
2022-11-09T13:42:35.643Z,99444.83
2022-11-09T13:45:51.840Z,99447.99
2022-11-09T13:48:54.700Z,99456.38
2022-11-09T13:51:56.444Z,99456.22
2022-11-09T13:54:58.409Z,99455.60
2022-11-09T13:58:16.868Z,99461.30
2022-11-09T14:01:41.232Z,99453.54
2022-11-09T14:04:46.722Z,99448.05
2022-11-09T14:07:48.571Z,99447.36
2022-11-09T14:11:09.883Z,99445.35
2022-11-09T14:14:48.957Z,99445.25
2022-11-09T14:18:02.660Z,99447.11
2022-11-09T14:21:13.630Z,99447.45
2022-11-09T14:24:24.120Z,99451.31
2022-11-09T14:27:25.928Z,99460.83
2022-11-09T14:30:31.254Z,99462.22
2022-11-09T14:33:39.266Z,99462.65
2022-11-09T14:36:42.500Z,99461.86
2022-11-09T14:39:49.304Z,99463.44
2022-11-09T14:42:55.883Z,99462.95
2022-11-09T14:46:03.565Z,99461.23
2022-11-09T14:49:17.558Z,99457.70
2022-11-09T14:52:26.848Z,99453.20
2022-11-09T14:55:35.179Z,99450.40
2022-11-09T14:58:44.272Z,99438.48
2022-11-09T15:02:07.313Z,99443.66
2022-11-09T15:05:39.399Z,99454.45
2022-11-09T15:08:59.751Z,99454.05
2022-11-09T15:12:04.301Z,99457.44
2022-11-09T15:15:08.273Z,99462.28
2022-11-09T15:18:33.341Z,99468.68
2022-11-09T15:21:52.510Z,99458.45
2022-11-09T15:24:55.575Z,99464.64
2022-11-09T15:27:58.861Z,99468.67
2022-11-09T15:31:15.932Z,99464.31
2022-11-09T15:34:27.674Z,99465.11
2022-11-09T15:37:47.687Z,99475.40
2022-11-09T15:40:52.276Z,99476.20
2022-11-09T15:43:57.043Z,99479.66
2022-11-09T15:50:49.268Z,99481.98
2022-11-09T15:53:51.029Z,99488.27
2022-11-09T15:56:53.049Z,99483.46
2022-11-09T16:00:20.912Z,99490.38
2022-11-09T16:03:24.896Z,99493.16
2022-11-09T16:06:45.274Z,99494.47
2022-11-09T16:13:38.538Z,99494.45
2022-11-09T16:25:35.215Z,99513.36
2022-11-09T16:28:59.393Z,99521.18
2022-11-09T16:32:07.746Z,99522.05
2022-11-09T16:35:29.332Z,99524.61
2022-11-09T16:38:46.355Z,99519.38
2022-11-09T16:47:06.963Z,99526.08
2022-11-09T16:50:24.114Z,99538.02
2022-11-09T16:57:10.383Z,99534.36
2022-11-09T17:03:59.162Z,99528.44
2022-11-09T17:07:09.736Z,99530.75
2022-11-09T17:11:00.186Z,99526.50
2022-11-09T17:15:02.686Z,99513.77
2022-11-09T17:19:09.456Z,99531.80
2022-11-09T17:30:13.422Z,99535.92
2022-11-09T17:33:30.202Z,99541.52
2022-11-09T17:37:03.210Z,99535.31
2022-11-09T17:40:23.372Z,99539.67
2022-11-09T17:43:29.791Z,99534.08
2022-11-09T17:46:35.268Z,99541.30
2022-11-09T17:49:58.785Z,99539.39
2022-11-09T17:53:13.567Z,99533.49
2022-11-09T17:56:27.610Z,99542.33
2022-11-09T18:00:05.530Z,99542.63
2022-11-09T18:06:51.861Z,99543.64
2022-11-09T18:09:53.994Z,99538.41
2022-11-09T18:12:56.131Z,99545.09
2022-11-09T18:15:58.032Z,99542.05
2022-11-09T18:19:06.777Z,99547.65
2022-11-09T18:22:12.871Z,99544.77
2022-11-09T18:25:18.846Z,99549.60
2022-11-09T18:28:21.674Z,99549.64
2022-11-09T18:31:24.627Z,99552.98
2022-11-09T18:34:31.040Z,99550.95
2022-11-09T18:37:38.676Z,99555.47
2022-11-09T18:40:40.424Z,99553.64
2022-11-09T18:43:44.623Z,99551.39
2022-11-09T18:46:55.330Z,99554.12
2022-11-09T18:54:05.585Z,99561.33
2022-11-09T18:57:20.375Z,99560.83
2022-11-09T19:00:33.322Z,99564.66
2022-11-09T19:03:38.570Z,99568.80
2022-11-09T19:06:54.531Z,99565.96
2022-11-09T19:10:00.350Z,99568.68
2022-11-09T19:13:10.017Z,99564.00
2022-11-09T19:16:38.657Z,99555.36
2022-11-09T19:19:57.571Z,99557.63
2022-11-09T19:27:15.223Z,99566.33
2022-11-09T19:34:07.704Z,99571.03
2022-11-09T19:37:22.715Z,99564.88
2022-11-09T19:40:41.139Z,99561.17
2022-11-09T19:43:54.445Z,99574.10
2022-11-09T19:47:13.129Z,99567.63
2022-11-09T19:50:22.720Z,99573.05
2022-11-09T19:53:47.059Z,99572.05
2022-11-09T19:57:13.658Z,99578.42
2022-11-09T20:00:57.865Z,99576.30
2022-11-09T20:04:13.339Z,99560.01
2022-11-09T20:11:55.843Z,99579.52
2022-11-09T20:15:39.845Z,99596.64
2022-11-09T20:19:02.654Z,99596.59
2022-11-09T20:23:28.069Z,99596.88
2022-11-09T20:26:51.084Z,99599.33
2022-11-09T20:47:06.723Z,99593.31
2022-11-09T20:50:23.670Z,99605.12
2022-11-09T20:53:27.251Z,99614.45
2022-11-09T20:56:33.869Z,99613.31
2022-11-09T20:59:41.802Z,99608.81
2022-11-09T21:02:44.965Z,99611.96
2022-11-09T21:05:58.947Z,99604.83
2022-11-09T21:09:07.716Z,99624.34
2022-11-09T21:12:23.051Z,99626.41
2022-11-09T21:15:28.940Z,99629.66
2022-11-09T21:18:35.789Z,99627.69
2022-11-09T21:21:48.748Z,99632.30
2022-11-09T21:25:10.478Z,99638.27
2022-11-09T21:28:35.431Z,99637.73
2022-11-09T21:31:38.451Z,99643.27
2022-11-09T21:34:44.755Z,99636.45
2022-11-09T21:37:49.057Z,99631.74
2022-11-09T21:40:52.542Z,99630.48
2022-11-09T21:44:04.807Z,99622.52
2022-11-09T21:47:13.502Z,99623.33
2022-11-09T21:50:16.688Z,99632.98
2022-11-09T21:53:19.801Z,99636.14
2022-11-09T21:56:22.914Z,99633.73
2022-11-09T21:59:25.862Z,99625.64
2022-11-09T22:02:31.098Z,99631.64
2022-11-09T22:05:33.967Z,99639.18
2022-11-09T22:08:39.109Z,99643.15
2022-11-09T22:12:03.271Z,99643.14
2022-11-09T22:15:29.194Z,99649.65
2022-11-09T22:18:54.952Z,99654.29
2022-11-09T22:21:57.854Z,99658.41
2022-11-09T22:25:00.721Z,99661.61
2022-11-09T22:28:03.625Z,99664.84
2022-11-09T22:31:08.645Z,99668.10
2022-11-09T22:34:13.180Z,99669.40
2022-11-09T22:37:16.225Z,99675.16
2022-11-09T22:40:19.169Z,99679.88
2022-11-09T22:43:22.189Z,99677.87
2022-11-09T22:46:25.200Z,99677.56
2022-11-09T22:50:31.371Z,99676.95
2022-11-09T22:53:34.719Z,99671.33
2022-11-09T22:56:37.548Z,99670.75
2022-11-09T22:59:40.447Z,99679.21
2022-11-09T23:02:43.287Z,99675.23
2022-11-09T23:05:48.192Z,99675.45
2022-11-09T23:08:51.328Z,99680.25
2022-11-09T23:11:54.099Z,99684.02
2022-11-09T23:15:06.076Z,99686.23
2022-11-09T23:18:27.887Z,99694.45
2022-11-09T23:21:33.672Z,99698.02
2022-11-09T23:24:54.972Z,99695.01
2022-11-09T23:27:58.930Z,99700.63
2022-11-09T23:31:07.612Z,99702.61
2022-11-09T23:34:10.423Z,99712.11
2022-11-09T23:37:13.238Z,99711.85
2022-11-09T23:40:16.348Z,99717.67
2022-11-09T23:43:19.791Z,99722.38
2022-11-09T23:46:23.069Z,99716.99
2022-11-09T23:50:24.601Z,99720.21
2022-11-09T23:53:28.172Z,99721.58
2022-11-09T23:56:30.983Z,99721.33
2022-11-09T23:59:33.910Z,99722.47
